Big Sandy, MT (59520)

2:48 PM MST on December 25, 2014 (GMT -0700)
Chouteau County RD.Dept #1 | Change Station
CLOSE
Current Station
Personal Weather Station
Location: Big Sandy, MT
Elevation: 2710 ft
Nearby Weather Stations

Elev 2710 ft 48.18 °N, 110.11 °W | Updated 3 seconds ago

Overcast
Overcast
26.3 °F
Feels Like 26 °F
N
0.0
Wind Variable Wind from North
Gusts 0.0 mph

Today
High -- | Low -- °F
--% Chance of Precip.
Yesterday
High -- | Low -- °F
Precip. -- in
8:09 AM 4:31 PM
Waxing Crescent, 19% visible
Pressure 30.06 in
Visibility 10.0 miles
Clouds Overcast 1600 ft
Windchill 26 °F
Dew Point 21 °F
Humidity 80%
Rainfall 0.00 in
Snow Depth Not available.
UV 0.0 out of 12
Pollen .10 out of 12
Air Quality Not available.
Flu Activity Not available.
METAR KHVR 252053Z AUTO 30008KT 10SM OVC016 M04/M07 A2997 RMK AO2 SLP180 T10391072 53002

More Conditions Fewer Conditions

Pressure 30.06 in
Visibility 10.0 miles
Clouds Overcast 1600 ft
Windchill 26 °F
Dew Point 21 °F
Humidity 80%
Rainfall 0.00 in
Snow Depth Not available.
UV 0.0 out of 12
Pollen .10 out of 12
Air Quality Not available.
Flu Activity Not available.
METAR KHVR 252053Z AUTO 30008KT 10SM OVC016 M04/M07 A2997 RMK AO2 SLP180 T10391072 53002

More Conditions Fewer Conditions

10-Day Weather Forecast

Almanac

Astronomy

Dec. 25, 2014 Rise Set
Actual Time
Civil Twilight
Nautical Twilight
Astronomical Twilight
Moon
Length of Visible Light
Length of Day
Tomorrow will be .
, % of the Moon is Illuminated

Today's Extremes

State Highs State Lows

Community

WunderPhotos

Upload Photos

1,780,405 photos uploaded!

WunderBlogs® & News

Nearby

Air Quality

  Air Quality AQ Index Pollutant
Not available.

Snow Depth

Station Depth Elevation

Earthquake Activity

City Distance Mag. Time & Date
Minimum magnitude displayed is 2.5.

Coastal Water Temperatures

Place Temperature

Nearby Weather Stations